Lake City, SC (29560)

8:20 PM EST on February 10, 2016 (GMT -0500)
Flying Tigers RC Club Inc. | | Change Station
CLOSE
Current Station
Personal Weather Station
Location: Scranton, SC
Elevation: 92 ft
Nearby Weather Stations
Active Advisory: Flood Warning

Elev 92 ft 33.90 °N, 79.69 °W | Updated 13 minutes ago

Clear
Clear
33.4 °F
Feels Like 27 °F
N
7.8
Wind Variable Wind from NE

Today
High -- | Low -- °F
--% Chance of Precip.
Yesterday
High -- | Low -- °F
Precip. -- in
Pressure 30.09 in
Visibility 10.0 miles
Clouds Clear
Windchill 27 °F
Dew Point 13 °F
Humidity 42%
Rainfall 0.00 in
Snow Depth Not available.
7:08 AM 5:58 PM
Waxing Crescent, 8% visible
METAR KCKI 110115Z AUTO 25006KT 10SM CLR 01/M12 A3009 RMK AO2
Pressure 30.09 in
Visibility 10.0 miles
Clouds Clear
Windchill 27 °F
Dew Point 13 °F
Humidity 42%
Rainfall 0.00 in
Snow Depth Not available.
7:08 AM 5:58 PM
Waxing Crescent, 8% visible
METAR KCKI 110115Z AUTO 25006KT 10SM CLR 01/M12 A3009 RMK AO2

10-Day Weather Forecast

Almanac

Astronomy

Feb. 10, 2016 Rise Set
Actual Time
Civil Twilight
Nautical Twilight
Astronomical Twilight
Moon
Length of Visible Light
Length of Day
Tomorrow will be .
, % of the Moon is Illuminated

Today's Extremes

State Highs State Lows

Community

WunderPhotos

Upload Photos

1,891,961 photos uploaded!

WunderBlog® & News

Nearby

Air Quality

  Air Quality AQ Index Pollutant
Not available.

Snow Depth

Station Depth Elevation

Earthquake Activity

City Distance Mag. Time & Date
Minimum magnitude displayed is 2.5.

Coastal Water Temperatures

Place Temperature

Stations

Nearby Weather Stations

Station Location Temp. Windchill Dew Point Humidity Wind Precip. Elev Updated Type
                   

Watches & Warnings

Flood Warning
Issued: 8:14 PM EST Feb. 10, 2016 – National Weather Service

The Flood Warning continues for
the great Pee Dee at Pee Dee.
* Until Sunday afternoon.
* At 8:00 PM Wednesday the stage was 21.42 feet.
* Flood stage is 19.0 feet.
* Minor flooding is occurring and minor flooding is forecast.
* Forecast... the river will continue to fall to below flood stage by early
Sunday morning.
* Impact... at 20.0 feet... flood waters will affect swamplands and logging
interests. Flood waters will affect Timberland as far downstream as Yauhannah
two weeks after the crest passes Pee Dee. Logging equipment needs to be moved.


Lat... Lon 3424 7962 3424 7950 3400 7945 3385 7932
          3385 7944 3398 7957